createdAt,value
2023-02-14T00:00:01.969Z,211.53
2023-02-14T00:00:34.974Z,208.67
2023-02-14T00:01:09.332Z,204.40
2023-02-14T00:01:41.698Z,205.27
2023-02-14T00:02:14.005Z,205.43
2023-02-14T00:02:46.372Z,205.80
2023-02-14T00:03:18.758Z,207.23
2023-02-14T00:03:51.087Z,206.03
2023-02-14T00:04:23.572Z,202.57
2023-02-14T00:04:56.051Z,202.77
2023-02-14T00:05:28.417Z,203.80
2023-02-14T00:06:06.562Z,200.67
2023-02-14T00:06:39.323Z,202.27
2023-02-14T00:07:11.915Z,201.53
2023-02-14T00:07:44.920Z,199.07
2023-02-14T00:08:17.264Z,198.67
2023-02-14T00:08:52.339Z,196.90
2023-02-14T00:09:24.744Z,193.13
2023-02-14T00:09:57.062Z,188.87
2023-02-14T00:10:29.406Z,188.70
2023-02-14T00:11:01.819Z,190.53
2023-02-14T00:11:34.416Z,192.83
2023-02-14T00:12:07.527Z,195.17
2023-02-14T00:12:39.894Z,192.73
2023-02-14T00:13:12.204Z,194.90
2023-02-14T00:14:04.458Z,197.77
2023-02-14T00:14:55.178Z,199.03
2023-02-14T00:15:27.507Z,201.10
2023-02-14T00:16:00.182Z,200.07
2023-02-14T00:16:33.218Z,200.57
2023-02-14T00:17:05.651Z,198.97
2023-02-14T00:17:37.955Z,198.67
2023-02-14T00:18:10.284Z,193.57
2023-02-14T00:19:00.796Z,197.40
2023-02-14T00:19:34.800Z,199.17
2023-02-14T00:20:08.131Z,196.50
2023-02-14T00:20:40.466Z,197.17
2023-02-14T00:21:12.864Z,196.10
2023-02-14T00:21:45.696Z,195.63
2023-02-14T00:22:18.189Z,195.23
2023-02-14T00:22:50.945Z,196.83
2023-02-14T00:23:23.272Z,195.73
2023-02-14T00:23:55.596Z,197.10
2023-02-14T00:24:28.219Z,195.50
2023-02-14T00:25:00.547Z,193.70
2023-02-14T00:25:34.386Z,194.80
2023-02-14T00:26:13.387Z,188.53
2023-02-14T00:26:46.111Z,180.50
2023-02-14T00:27:18.431Z,177.00
2023-02-14T00:27:50.777Z,179.67
2023-02-14T00:28:23.097Z,186.00
2023-02-14T00:28:55.398Z,191.50
2023-02-14T00:29:30.490Z,192.40
2023-02-14T00:30:03.342Z,190.17
2023-02-14T00:30:35.910Z,190.10
2023-02-14T00:31:08.480Z,192.37
2023-02-14T00:31:42.080Z,193.87
2023-02-14T00:32:14.497Z,192.97
2023-02-14T00:32:46.863Z,190.97
2023-02-14T00:33:19.166Z,189.23
2023-02-14T00:33:51.466Z,188.03
2023-02-14T00:34:23.885Z,187.43
2023-02-14T00:34:56.636Z,184.57
2023-02-14T00:35:28.959Z,183.47
2023-02-14T00:36:04.559Z,183.53
2023-02-14T00:36:37.495Z,184.53
2023-02-14T00:37:09.816Z,185.03
2023-02-14T00:37:42.203Z,184.60
2023-02-14T00:38:56.540Z,185.93
2023-02-14T00:39:28.858Z,188.00
2023-02-14T00:40:01.193Z,189.43
2023-02-14T00:40:33.530Z,190.97
2023-02-14T00:41:05.847Z,188.77
2023-02-14T00:41:39.326Z,184.53
2023-02-14T00:42:13.560Z,182.93
2023-02-14T00:42:45.867Z,182.03
2023-02-14T00:43:18.247Z,184.03
2023-02-14T00:43:53.313Z,186.53
2023-02-14T00:44:25.701Z,182.53
2023-02-14T00:44:58.028Z,183.33
2023-02-14T00:45:30.426Z,182.97
2023-02-14T00:46:02.826Z,174.10
2023-02-14T00:46:35.708Z,163.33
2023-02-14T00:47:08.496Z,163.07
2023-02-14T00:47:40.806Z,166.97
2023-02-14T00:48:13.110Z,163.87
2023-02-14T00:48:45.871Z,159.87
2023-02-14T00:49:18.499Z,154.63
2023-02-14T00:49:50.840Z,154.87
2023-02-14T00:50:23.144Z,153.23
2023-02-14T00:50:55.449Z,150.43
2023-02-14T00:51:27.961Z,151.17
2023-02-14T00:52:00.559Z,150.83
2023-02-14T00:52:32.848Z,152.33
2023-02-14T00:53:05.270Z,160.13
2023-02-14T00:53:37.883Z,167.43
2023-02-14T00:54:10.235Z,169.10
2023-02-14T00:54:42.587Z,169.27
2023-02-14T00:55:15.137Z,174.87
2023-02-14T00:55:47.476Z,174.40
2023-02-14T00:56:20.809Z,172.90
2023-02-14T00:56:53.108Z,168.70
2023-02-14T00:57:25.465Z,169.67
2023-02-14T00:57:58.233Z,171.63
2023-02-14T00:58:30.983Z,170.40
2023-02-14T00:59:03.300Z,168.67
2023-02-14T00:59:35.607Z,171.63
2023-02-14T01:00:09.312Z,170.40
2023-02-14T01:00:41.716Z,167.03
2023-02-14T01:01:16.041Z,166.60
2023-02-14T01:01:48.452Z,165.67
2023-02-14T01:02:21.186Z,164.03
2023-02-14T01:02:53.641Z,163.80
2023-02-14T01:03:26.658Z,164.90
2023-02-14T01:03:59.882Z,166.40
2023-02-14T01:04:32.251Z,166.93
2023-02-14T01:05:04.813Z,166.13
2023-02-14T01:05:37.199Z,166.07
2023-02-14T01:06:09.792Z,163.57
2023-02-14T01:06:42.115Z,160.60
2023-02-14T01:07:14.457Z,161.03
2023-02-14T01:07:46.774Z,163.97
2023-02-14T01:08:20.101Z,164.10
2023-02-14T01:08:52.487Z,161.73
2023-02-14T01:09:24.943Z,160.70
2023-02-14T01:09:57.270Z,160.37
2023-02-14T01:10:29.707Z,161.90
2023-02-14T01:11:30.161Z,163.60
2023-02-14T01:12:02.871Z,154.53
2023-02-14T01:12:35.291Z,156.17
2023-02-14T01:13:08.183Z,157.73
2023-02-14T01:13:40.940Z,158.43
2023-02-14T01:14:13.285Z,158.80
2023-02-14T01:14:45.625Z,156.20
2023-02-14T01:15:18.046Z,158.27
2023-02-14T01:15:51.844Z,156.57
2023-02-14T01:16:26.507Z,153.80
2023-02-14T01:16:59.047Z,154.30
2023-02-14T01:17:31.337Z,156.43
2023-02-14T01:18:03.719Z,155.03
2023-02-14T01:18:37.000Z,157.50
2023-02-14T01:19:09.378Z,153.90
2023-02-14T01:19:42.568Z,155.67
2023-02-14T01:20:15.180Z,156.77
2023-02-14T01:20:47.938Z,155.47
2023-02-14T01:21:24.497Z,155.40
2023-02-14T01:21:56.977Z,154.60
2023-02-14T01:22:29.314Z,155.53
2023-02-14T01:23:02.204Z,154.90
2023-02-14T01:23:34.551Z,155.90
2023-02-14T01:24:08.064Z,152.73
2023-02-14T01:24:40.354Z,154.47
2023-02-14T01:25:12.755Z,161.07
2023-02-14T01:25:45.071Z,161.63
2023-02-14T01:26:17.648Z,161.07
2023-02-14T01:26:50.117Z,160.37
2023-02-14T01:27:22.428Z,167.03
2023-02-14T01:27:55.259Z,167.67
2023-02-14T01:28:27.614Z,168.83
2023-02-14T01:29:00.038Z,169.87
2023-02-14T01:29:32.359Z,172.60
2023-02-14T01:30:05.663Z,175.53
2023-02-14T01:30:38.024Z,173.13
2023-02-14T01:31:14.082Z,172.03
2023-02-14T01:31:48.422Z,173.13
2023-02-14T01:32:20.853Z,173.27
2023-02-14T01:32:53.158Z,172.83
2023-02-14T01:33:25.458Z,171.23
2023-02-14T01:33:58.997Z,175.07
2023-02-14T01:34:31.351Z,173.03
2023-02-14T01:35:04.757Z,173.27
2023-02-14T01:35:39.821Z,173.50
2023-02-14T01:36:21.687Z,182.10
2023-02-14T01:36:53.981Z,178.40
2023-02-14T01:37:26.650Z,181.13
2023-02-14T01:37:59.002Z,182.33
2023-02-14T01:38:31.444Z,183.13
2023-02-14T01:39:07.444Z,182.93
2023-02-14T01:39:41.371Z,181.17
2023-02-14T01:40:15.045Z,177.57
2023-02-14T01:40:47.464Z,173.47
2023-02-14T01:41:20.847Z,172.30
2023-02-14T01:41:55.776Z,176.23
2023-02-14T01:42:29.071Z,178.53
2023-02-14T01:43:01.411Z,175.27
2023-02-14T01:43:50.490Z,173.93
2023-02-14T01:44:45.777Z,176.00
2023-02-14T01:45:21.682Z,175.33
2023-02-14T01:45:54.125Z,174.57
2023-02-14T01:46:29.785Z,175.33
2023-02-14T01:47:06.656Z,177.77
2023-02-14T01:47:43.412Z,178.57
2023-02-14T01:48:18.879Z,176.90
2023-02-14T01:48:55.574Z,178.83
2023-02-14T01:49:32.518Z,178.50
2023-02-14T01:50:29.216Z,176.73
2023-02-14T01:51:01.838Z,175.10
2023-02-14T01:51:38.472Z,173.57
2023-02-14T01:52:20.054Z,172.40
2023-02-14T01:52:59.321Z,169.60
2023-02-14T01:53:31.875Z,170.20
2023-02-14T01:54:07.411Z,171.30
2023-02-14T01:54:44.857Z,169.43
2023-02-14T01:55:21.742Z,172.80
2023-02-14T01:56:07.832Z,169.67
2023-02-14T01:56:49.507Z,173.87
2023-02-14T01:57:26.909Z,171.47
2023-02-14T01:58:04.353Z,168.70
2023-02-14T01:58:41.669Z,168.53
2023-02-14T01:59:21.076Z,167.60
2023-02-14T02:00:19.568Z,165.43
2023-02-14T02:00:58.123Z,160.27
2023-02-14T02:01:31.599Z,157.33
2023-02-14T02:02:05.680Z,159.17
2023-02-14T02:02:38.097Z,160.87
2023-02-14T02:03:12.356Z,167.00
2023-02-14T02:03:50.781Z,172.40
2023-02-14T02:04:30.472Z,169.37
2023-02-14T02:05:03.013Z,169.67
2023-02-14T02:05:44.560Z,170.70
2023-02-14T02:06:21.156Z,169.00
2023-02-14T02:06:59.663Z,169.00
2023-02-14T02:07:33.106Z,168.30
2023-02-14T02:08:05.492Z,168.93
2023-02-14T02:08:44.774Z,170.83
2023-02-14T02:09:38.645Z,169.70
2023-02-14T02:10:11.215Z,167.43
2023-02-14T02:10:43.537Z,168.13
2023-02-14T02:11:16.019Z,167.27
2023-02-14T02:11:49.120Z,168.77
2023-02-14T02:12:22.250Z,168.03
2023-02-14T02:12:55.136Z,170.27
2023-02-14T02:13:27.489Z,169.27
2023-02-14T02:13:59.809Z,169.97
2023-02-14T02:14:33.207Z,168.90
2023-02-14T02:15:06.842Z,169.17
2023-02-14T02:15:54.239Z,170.20
2023-02-14T02:16:33.854Z,168.90
2023-02-14T02:17:18.522Z,170.57
2023-02-14T02:18:02.644Z,170.43
2023-02-14T02:19:15.949Z,173.00
2023-02-14T02:20:09.572Z,175.00
2023-02-14T02:20:57.156Z,174.07
2023-02-14T02:22:12.291Z,174.87
2023-02-14T02:23:23.546Z,176.20
2023-02-14T02:23:55.825Z,173.03
2023-02-14T02:25:03.487Z,176.40
2023-02-14T02:25:44.583Z,171.00
2023-02-14T02:26:47.042Z,175.40
2023-02-14T02:27:22.082Z,179.50
2023-02-14T02:28:34.934Z,176.23
2023-02-14T02:29:33.382Z,173.97
2023-02-14T02:30:19.735Z,173.60
2023-02-14T02:31:10.751Z,174.63
2023-02-14T02:31:43.344Z,175.10
2023-02-14T02:32:15.825Z,177.83
2023-02-14T02:32:54.139Z,172.23
2023-02-14T02:33:51.135Z,171.30
2023-02-14T02:34:53.843Z,173.40
2023-02-14T02:35:39.205Z,173.63
2023-02-14T02:36:11.476Z,174.47
2023-02-14T02:36:48.735Z,176.30
2023-02-14T02:37:29.951Z,173.83
2023-02-14T02:38:04.796Z,175.20
2023-02-14T02:39:02.937Z,171.47
2023-02-14T02:39:58.037Z,167.67
2023-02-14T02:40:45.419Z,173.40
2023-02-14T02:41:42.438Z,172.43
2023-02-14T02:42:29.856Z,175.13
2023-02-14T02:43:25.080Z,172.80
2023-02-14T02:44:06.604Z,172.17
2023-02-14T02:44:56.702Z,171.87
2023-02-14T02:46:06.042Z,170.63
2023-02-14T02:47:04.559Z,166.47
2023-02-14T02:47:41.766Z,164.70
2023-02-14T02:48:23.417Z,159.43
2023-02-14T02:49:37.033Z,157.20
2023-02-14T02:50:41.347Z,159.30
2023-02-14T02:51:43.041Z,160.20
2023-02-14T02:53:06.239Z,156.97
2023-02-14T02:53:51.464Z,151.30
2023-02-14T02:54:32.480Z,154.03
2023-02-14T02:55:16.766Z,152.80
2023-02-14T02:56:32.859Z,149.23
2023-02-14T02:57:17.000Z,144.77
2023-02-14T02:57:51.956Z,145.17
2023-02-14T02:58:29.979Z,148.53
2023-02-14T02:59:41.218Z,151.17
2023-02-14T03:00:17.454Z,145.47
2023-02-14T03:00:54.568Z,148.30
2023-02-14T03:01:34.904Z,143.00
2023-02-14T03:02:16.254Z,139.40
2023-02-14T03:03:10.979Z,141.57
2023-02-14T03:04:05.581Z,141.77
2023-02-14T03:04:54.711Z,139.73
2023-02-14T03:05:29.579Z,137.63
2023-02-14T03:06:02.654Z,140.67
2023-02-14T03:06:35.212Z,140.07
2023-02-14T03:07:26.467Z,136.83
2023-02-14T03:07:59.829Z,131.83
2023-02-14T03:08:32.158Z,133.13
2023-02-14T03:09:33.426Z,132.70
2023-02-14T03:10:06.082Z,133.93
2023-02-14T03:10:39.741Z,135.60
2023-02-14T03:11:13.550Z,133.63
2023-02-14T03:12:21.556Z,138.10
2023-02-14T03:13:12.259Z,136.20
2023-02-14T03:14:07.320Z,136.03
2023-02-14T03:14:53.478Z,137.03
2023-02-14T03:15:37.785Z,138.30
2023-02-14T03:16:28.079Z,134.77
2023-02-14T03:17:40.943Z,133.37
2023-02-14T03:18:50.021Z,136.50
2023-02-14T03:19:24.932Z,137.13
2023-02-14T03:20:16.801Z,136.97
2023-02-14T03:21:28.889Z,135.80
2023-02-14T03:22:20.501Z,136.33
2023-02-14T03:23:20.607Z,135.70
2023-02-14T03:24:11.154Z,135.00
2023-02-14T03:25:20.499Z,134.27
2023-02-14T03:26:02.518Z,133.77
2023-02-14T03:26:51.519Z,132.60
2023-02-14T03:27:38.809Z,134.60
2023-02-14T03:28:33.336Z,132.93
2023-02-14T03:29:24.593Z,132.10
2023-02-14T03:30:09.342Z,132.93
2023-02-14T03:31:07.483Z,135.60
2023-02-14T03:32:36.758Z,133.27
2023-02-14T03:33:19.870Z,135.87
2023-02-14T03:34:02.276Z,138.30
2023-02-14T03:34:44.431Z,141.27
2023-02-14T03:35:22.607Z,141.07
2023-02-14T03:36:02.230Z,144.63
2023-02-14T03:36:50.799Z,142.90
2023-02-14T03:37:40.632Z,146.57
2023-02-14T03:38:31.313Z,143.13
2023-02-14T03:39:24.261Z,142.57
2023-02-14T03:40:03.696Z,143.33
2023-02-14T03:40:43.120Z,146.10
2023-02-14T03:41:22.581Z,145.77
2023-02-14T03:42:13.255Z,140.10
2023-02-14T03:42:52.920Z,137.77
2023-02-14T03:43:37.265Z,139.57
2023-02-14T03:44:12.623Z,137.70
2023-02-14T03:44:48.631Z,137.37
2023-02-14T03:45:40.502Z,140.63
2023-02-14T03:46:24.814Z,137.13
2023-02-14T03:47:09.703Z,137.17
2023-02-14T03:47:44.815Z,137.57
2023-02-14T03:48:20.851Z,138.63
2023-02-14T03:48:56.508Z,140.20
2023-02-14T03:49:33.783Z,139.40
2023-02-14T03:50:27.879Z,139.33
2023-02-14T03:51:02.101Z,134.83
2023-02-14T03:51:36.098Z,135.47
2023-02-14T03:52:11.146Z,131.00
2023-02-14T03:52:45.888Z,128.30
2023-02-14T03:53:24.028Z,126.10
2023-02-14T03:53:59.134Z,125.93
2023-02-14T03:54:34.136Z,126.93
2023-02-14T03:55:09.528Z,128.03
2023-02-14T03:55:54.187Z,128.13
2023-02-14T03:56:38.131Z,127.20
2023-02-14T03:57:33.693Z,130.00
2023-02-14T03:58:28.360Z,130.07
2023-02-14T03:59:10.585Z,130.93
2023-02-14T03:59:43.622Z,132.00
2023-02-14T04:00:18.430Z,131.93
2023-02-14T04:00:55.154Z,131.67
2023-02-14T04:01:39.421Z,133.77
2023-02-14T04:02:29.208Z,138.90
2023-02-14T04:03:07.563Z,138.37
2023-02-14T04:03:42.954Z,136.90
2023-02-14T04:04:19.724Z,135.67
2023-02-14T04:04:53.753Z,137.37
2023-02-14T04:05:28.098Z,137.43
2023-02-14T04:06:00.864Z,135.87
2023-02-14T04:06:33.416Z,134.67
2023-02-14T04:07:13.444Z,137.93
2023-02-14T04:07:48.929Z,135.03
2023-02-14T04:08:26.468Z,132.63
2023-02-14T04:08:58.962Z,129.77
2023-02-14T04:09:31.284Z,132.63
2023-02-14T04:10:03.634Z,135.37
2023-02-14T04:10:36.256Z,134.30
2023-02-14T04:11:08.672Z,131.90
2023-02-14T04:11:41.424Z,132.67
2023-02-14T04:12:14.786Z,131.77
2023-02-14T04:12:47.691Z,129.47
2023-02-14T04:13:21.128Z,130.57
2023-02-14T04:13:53.450Z,131.00
2023-02-14T04:14:29.430Z,131.90
2023-02-14T04:15:01.754Z,131.00
2023-02-14T04:15:34.244Z,130.23
2023-02-14T04:16:07.216Z,132.30
2023-02-14T04:16:57.962Z,128.43
2023-02-14T04:17:48.767Z,128.90
2023-02-14T04:18:39.779Z,126.97
2023-02-14T04:19:23.827Z,125.57
2023-02-14T04:19:56.184Z,127.37
2023-02-14T04:20:29.058Z,122.70
2023-02-14T04:21:01.626Z,113.70
2023-02-14T04:21:34.074Z,111.50
2023-02-14T04:22:06.391Z,117.33
2023-02-14T04:22:38.690Z,116.43
2023-02-14T04:23:11.034Z,116.10
2023-02-14T04:23:43.358Z,115.27
2023-02-14T04:24:15.839Z,116.03
2023-02-14T04:24:48.510Z,114.93
2023-02-14T04:25:22.101Z,108.97
2023-02-14T04:25:54.565Z,104.33
2023-02-14T04:26:26.918Z,97.07
2023-02-14T04:27:11.507Z,92.13
2023-02-14T04:27:43.992Z,90.43
2023-02-14T04:28:16.441Z,89.77
2023-02-14T04:28:48.784Z,86.67
2023-02-14T04:29:21.421Z,86.20
2023-02-14T04:29:53.767Z,89.67
2023-02-14T04:30:26.126Z,91.67
2023-02-14T04:31:02.935Z,90.63
2023-02-14T04:31:35.718Z,89.87
2023-02-14T04:32:11.550Z,91.87
2023-02-14T04:32:44.793Z,95.37
2023-02-14T04:33:17.114Z,92.83
2023-02-14T04:33:51.262Z,91.03
2023-02-14T04:34:23.567Z,92.73
2023-02-14T04:34:55.874Z,94.40
2023-02-14T04:35:28.165Z,95.20
2023-02-14T04:36:00.742Z,97.87
2023-02-14T04:36:33.054Z,99.40
2023-02-14T04:37:06.043Z,99.87
2023-02-14T04:37:39.062Z,100.03
2023-02-14T04:38:11.693Z,100.90
2023-02-14T04:38:43.992Z,103.37
2023-02-14T04:39:16.319Z,107.30
2023-02-14T04:39:49.019Z,106.17
2023-02-14T04:40:21.504Z,103.70
2023-02-14T04:40:53.974Z,113.10
2023-02-14T04:41:26.301Z,111.53
2023-02-14T04:41:58.667Z,107.37
2023-02-14T04:42:30.972Z,105.47
2023-02-14T04:43:04.674Z,104.10
2023-02-14T04:43:37.010Z,104.07
2023-02-14T04:44:09.340Z,106.30
2023-02-14T04:44:42.058Z,104.13
2023-02-14T04:45:15.025Z,102.67
2023-02-14T04:45:47.457Z,103.67
2023-02-14T04:46:19.850Z,116.53
2023-02-14T04:46:52.242Z,112.70
2023-02-14T04:47:24.936Z,104.17
2023-02-14T04:47:57.292Z,101.60
2023-02-14T04:48:29.639Z,101.10
2023-02-14T04:49:01.967Z,105.70
2023-02-14T04:49:34.896Z,101.67
2023-02-14T04:50:07.972Z,100.57
2023-02-14T04:50:40.531Z,100.80
2023-02-14T04:51:13.251Z,98.63
2023-02-14T04:51:46.550Z,97.70
2023-02-14T04:52:18.876Z,96.97
2023-02-14T04:52:51.500Z,96.93
2023-02-14T04:53:23.894Z,97.53
2023-02-14T04:53:56.198Z,96.87
2023-02-14T04:54:28.599Z,98.97
2023-02-14T04:55:00.925Z,99.47
2023-02-14T04:55:33.220Z,102.87
2023-02-14T04:56:06.605Z,103.00
2023-02-14T04:56:39.312Z,102.07
2023-02-14T04:57:11.618Z,95.97
2023-02-14T04:57:44.692Z,91.07
2023-02-14T04:58:17.676Z,94.47
2023-02-14T04:58:49.968Z,99.00
2023-02-14T04:59:24.702Z,114.63
2023-02-14T04:59:57.326Z,108.57
2023-02-14T05:00:29.653Z,101.83
2023-02-14T05:01:02.342Z,93.93
2023-02-14T05:01:34.876Z,93.30
2023-02-14T05:02:07.192Z,102.37
2023-02-14T05:02:39.570Z,102.33
2023-02-14T05:03:11.894Z,101.33
2023-02-14T05:03:44.204Z,164.83
2023-02-14T05:04:16.587Z,167.00
2023-02-14T05:04:49.823Z,126.80
2023-02-14T05:05:22.213Z,118.27
2023-02-14T05:05:54.537Z,107.63
2023-02-14T05:06:27.169Z,103.20
2023-02-14T05:06:59.567Z,100.70
2023-02-14T05:07:31.957Z,99.40
2023-02-14T05:08:04.404Z,99.10
2023-02-14T05:08:36.742Z,103.17
2023-02-14T05:09:09.120Z,106.67
2023-02-14T05:09:41.453Z,168.00
2023-02-14T05:10:14.855Z,185.57
2023-02-14T05:10:47.331Z,161.40
2023-02-14T05:11:19.633Z,196.90
2023-02-14T05:11:51.964Z,132.03
2023-02-14T05:12:25.306Z,116.60
2023-02-14T05:12:57.629Z,210.67
2023-02-14T05:13:30.086Z,252.20
2023-02-14T05:14:02.416Z,158.80
2023-02-14T05:14:34.782Z,139.63
2023-02-14T05:15:07.310Z,125.60
2023-02-14T05:15:39.767Z,115.73
2023-02-14T05:16:12.307Z,109.77
2023-02-14T05:16:44.724Z,106.70
2023-02-14T05:17:17.336Z,110.77
2023-02-14T05:17:49.628Z,108.20
2023-02-14T05:18:21.928Z,105.80
2023-02-14T05:18:54.329Z,104.07
2023-02-14T05:19:26.672Z,104.10
2023-02-14T05:19:59.030Z,105.40
2023-02-14T05:20:32.322Z,105.30
2023-02-14T05:21:04.898Z,105.33
2023-02-14T05:21:38.302Z,103.03
2023-02-14T05:22:10.700Z,105.87
2023-02-14T05:22:43.048Z,106.07
2023-02-14T05:23:15.412Z,103.67
2023-02-14T05:23:47.712Z,104.53
2023-02-14T05:24:20.113Z,105.77
2023-02-14T05:24:52.455Z,104.33
2023-02-14T05:25:24.784Z,104.33
2023-02-14T05:25:57.174Z,103.77
2023-02-14T05:26:29.582Z,101.83
2023-02-14T05:27:01.921Z,102.63
2023-02-14T05:27:34.265Z,105.43
2023-02-14T05:28:06.985Z,102.23
2023-02-14T05:28:41.096Z,103.70
2023-02-14T05:29:13.460Z,105.23
2023-02-14T05:29:45.757Z,109.70
2023-02-14T05:30:18.392Z,119.60
2023-02-14T05:30:52.082Z,119.20
2023-02-14T05:31:24.932Z,125.00
2023-02-14T05:31:57.369Z,134.70
2023-02-14T05:32:29.694Z,136.67
2023-02-14T05:33:01.978Z,137.90
2023-02-14T05:33:34.286Z,149.43
2023-02-14T05:34:06.604Z,144.77
2023-02-14T05:34:38.919Z,133.63
2023-02-14T05:35:11.216Z,124.70
2023-02-14T05:35:43.684Z,123.77
2023-02-14T05:36:15.997Z,126.70
2023-02-14T05:36:48.354Z,127.67
2023-02-14T05:37:20.638Z,132.73
2023-02-14T05:37:52.975Z,128.53
2023-02-14T05:38:25.288Z,125.70
2023-02-14T05:38:57.615Z,128.53
2023-02-14T05:39:30.151Z,130.97
2023-02-14T05:40:02.520Z,128.87
2023-02-14T05:40:34.924Z,130.90
2023-02-14T05:41:07.334Z,131.50
2023-02-14T05:41:39.700Z,134.50
2023-02-14T05:42:12.043Z,144.43
2023-02-14T05:42:44.453Z,145.13
2023-02-14T05:43:16.754Z,138.17
2023-02-14T05:43:49.068Z,131.67
2023-02-14T05:44:21.476Z,129.50
2023-02-14T05:44:53.850Z,142.63
2023-02-14T05:45:26.463Z,150.57
2023-02-14T05:45:59.325Z,155.53
2023-02-14T05:46:31.733Z,156.23
2023-02-14T05:47:04.260Z,149.73
2023-02-14T05:47:36.594Z,166.17
2023-02-14T05:48:09.019Z,191.43
2023-02-14T05:48:41.428Z,138.47
2023-02-14T05:49:13.847Z,163.13
2023-02-14T05:49:46.124Z,148.43
2023-02-14T05:50:19.016Z,140.83
2023-02-14T05:50:51.523Z,141.20
2023-02-14T05:51:23.846Z,144.83
2023-02-14T05:51:56.202Z,147.27
2023-02-14T05:52:28.556Z,146.17
2023-02-14T05:53:01.221Z,136.90
2023-02-14T05:53:34.284Z,137.10
2023-02-14T05:54:06.580Z,139.03
2023-02-14T05:54:39.101Z,140.97
2023-02-14T05:55:11.604Z,144.70
2023-02-14T05:55:43.990Z,140.87
2023-02-14T05:56:16.328Z,136.13
2023-02-14T05:56:48.642Z,134.47
2023-02-14T05:57:20.991Z,140.97
2023-02-14T05:57:53.335Z,143.80
2023-02-14T05:58:25.679Z,141.23
2023-02-14T05:58:57.962Z,155.63
2023-02-14T05:59:30.328Z,158.70
2023-02-14T06:00:06.380Z,156.50
2023-02-14T06:00:41.050Z,186.00
2023-02-14T06:01:13.768Z,191.53
2023-02-14T06:01:46.092Z,192.97
2023-02-14T06:02:18.473Z,177.23
2023-02-14T06:02:51.169Z,164.20
2023-02-14T06:03:23.503Z,164.87
2023-02-14T06:03:55.806Z,178.50
2023-02-14T06:04:28.150Z,187.30
2023-02-14T06:05:01.767Z,193.87
2023-02-14T06:05:34.123Z,196.03
2023-02-14T06:06:06.668Z,208.70
2023-02-14T06:06:39.046Z,196.30
2023-02-14T06:07:11.328Z,183.10
2023-02-14T06:07:50.315Z,180.97
2023-02-14T06:08:22.698Z,177.17
2023-02-14T06:08:55.048Z,169.13
2023-02-14T06:09:27.385Z,171.67
2023-02-14T06:09:59.676Z,153.23
2023-02-14T06:10:32.131Z,150.50
2023-02-14T06:11:04.601Z,162.93
2023-02-14T06:11:36.881Z,180.30
2023-02-14T06:12:09.346Z,166.17
2023-02-14T06:12:41.662Z,157.03
2023-02-14T06:13:14.030Z,153.40
2023-02-14T06:13:46.308Z,173.93
2023-02-14T06:14:18.608Z,159.73
2023-02-14T06:14:50.918Z,155.13
2023-02-14T06:15:23.587Z,150.57
2023-02-14T06:15:55.889Z,144.43
2023-02-14T06:16:28.202Z,137.97
2023-02-14T06:17:01.106Z,130.20
2023-02-14T06:17:34.159Z,137.00
2023-02-14T06:18:06.762Z,146.70
2023-02-14T06:18:39.170Z,148.80
2023-02-14T06:19:11.477Z,142.63
2023-02-14T06:19:43.811Z,140.57
2023-02-14T06:20:16.139Z,123.50
2023-02-14T06:20:48.449Z,110.43
2023-02-14T06:21:20.796Z,122.77
2023-02-14T06:21:53.133Z,199.10
2023-02-14T06:22:25.445Z,298.33
2023-02-14T06:22:57.762Z,379.57
2023-02-14T06:23:30.097Z,231.13
2023-02-14T06:24:02.453Z,166.57
2023-02-14T06:24:34.752Z,165.23
2023-02-14T06:25:07.407Z,200.00
2023-02-14T06:25:39.754Z,170.80
2023-02-14T06:26:12.704Z,136.33
2023-02-14T06:26:45.054Z,131.60
2023-02-14T06:27:17.361Z,134.67
2023-02-14T06:27:49.736Z,137.97
2023-02-14T06:28:22.900Z,134.07
2023-02-14T06:28:55.931Z,130.17
2023-02-14T06:29:28.346Z,130.03
2023-02-14T06:30:00.738Z,133.33
2023-02-14T06:30:33.301Z,135.70
2023-02-14T06:31:05.734Z,137.87
2023-02-14T06:31:38.243Z,136.37
2023-02-14T06:32:10.798Z,135.77
2023-02-14T06:32:43.239Z,135.93
2023-02-14T06:33:15.554Z,135.80
2023-02-14T06:33:48.049Z,134.30
2023-02-14T06:34:20.356Z,130.33
2023-02-14T06:34:52.734Z,130.33
2023-02-14T06:35:25.068Z,135.67
2023-02-14T06:35:57.430Z,134.20
2023-02-14T06:36:30.028Z,134.87
2023-02-14T06:37:02.350Z,138.17
2023-02-14T06:37:34.926Z,139.87
2023-02-14T06:38:07.210Z,138.47
2023-02-14T06:38:39.499Z,140.90
2023-02-14T06:39:11.810Z,144.33
2023-02-14T06:39:44.196Z,146.40
2023-02-14T06:40:16.677Z,147.10
2023-02-14T06:40:48.974Z,145.47
2023-02-14T06:41:21.297Z,143.40
2023-02-14T06:41:53.592Z,139.23
2023-02-14T06:42:26.024Z,137.67
2023-02-14T06:42:58.360Z,130.03
2023-02-14T06:43:30.809Z,132.20
2023-02-14T06:44:03.166Z,139.23
2023-02-14T06:44:35.496Z,142.13
2023-02-14T06:45:08.445Z,140.27
2023-02-14T06:45:43.784Z,138.83
2023-02-14T06:46:19.691Z,141.37
2023-02-14T06:46:52.638Z,138.90
2023-02-14T06:47:24.919Z,139.57
2023-02-14T06:47:57.199Z,139.67
2023-02-14T06:48:29.986Z,137.73
2023-02-14T06:49:02.324Z,134.63
2023-02-14T06:49:34.885Z,141.13
2023-02-14T06:50:07.975Z,147.33
2023-02-14T06:50:40.432Z,142.03
2023-02-14T06:51:13.150Z,135.50
2023-02-14T06:51:45.521Z,150.13
2023-02-14T06:52:17.846Z,144.87
2023-02-14T06:52:51.456Z,144.87
2023-02-14T06:53:24.024Z,138.90
2023-02-14T06:53:59.445Z,129.67
2023-02-14T06:54:31.915Z,129.73
2023-02-14T06:55:04.551Z,120.80
2023-02-14T06:55:37.231Z,119.33
2023-02-14T06:56:09.597Z,125.43
2023-02-14T06:56:42.195Z,142.87
2023-02-14T06:57:14.522Z,145.87
2023-02-14T06:57:46.948Z,120.80
2023-02-14T06:58:19.340Z,113.33
2023-02-14T06:58:51.621Z,113.20
2023-02-14T06:59:24.301Z,115.33
2023-02-14T06:59:56.900Z,115.07
2023-02-14T07:00:29.504Z,115.17
2023-02-14T07:01:02.479Z,112.90
2023-02-14T07:01:35.302Z,109.77
2023-02-14T07:02:14.100Z,109.77
2023-02-14T07:02:47.056Z,107.70
2023-02-14T07:03:25.326Z,104.60
2023-02-14T07:03:57.770Z,103.80
2023-02-14T07:04:30.352Z,103.37
2023-02-14T07:05:02.805Z,110.43
2023-02-14T07:05:35.604Z,107.47
2023-02-14T07:06:10.369Z,105.27
2023-02-14T07:06:42.869Z,104.17
2023-02-14T07:07:15.368Z,105.10
2023-02-14T07:07:47.934Z,106.33
2023-02-14T07:08:20.879Z,106.70
2023-02-14T07:08:53.198Z,106.93
2023-02-14T07:09:25.530Z,103.33
2023-02-14T07:09:57.850Z,102.10
2023-02-14T07:24:14.493Z,93.90
2023-02-14T07:24:53.004Z,90.80
2023-02-14T07:25:25.562Z,87.63
2023-02-14T07:25:57.957Z,86.00
2023-02-14T07:26:30.586Z,84.50
2023-02-14T07:27:04.164Z,83.93
2023-02-14T07:27:38.939Z,83.70
2023-02-14T07:28:11.573Z,83.37
2023-02-14T07:28:49.310Z,82.70
2023-02-14T07:29:21.638Z,79.30
2023-02-14T07:29:54.029Z,80.47
2023-02-14T07:30:26.386Z,81.40
2023-02-14T07:31:02.159Z,82.27
2023-02-14T07:31:37.555Z,82.50
2023-02-14T07:32:10.065Z,81.90
2023-02-14T07:32:42.686Z,78.57
2023-02-14T07:33:15.078Z,81.00
2023-02-14T07:33:47.737Z,83.80
2023-02-14T07:34:21.634Z,84.20
2023-02-14T07:34:54.019Z,81.63
2023-02-14T07:35:28.758Z,80.67
2023-02-14T07:36:05.379Z,78.43
2023-02-14T07:36:39.041Z,78.13
2023-02-14T07:37:13.775Z,80.70
2023-02-14T07:37:46.109Z,81.83
2023-02-14T07:38:18.416Z,80.53
2023-02-14T07:38:50.723Z,80.60
2023-02-14T07:39:23.042Z,80.07
2023-02-14T07:39:55.410Z,78.37
2023-02-14T07:40:29.941Z,75.50
2023-02-14T07:41:02.547Z,76.63
2023-02-14T07:41:34.946Z,75.10
2023-02-14T07:42:08.284Z,75.57
2023-02-14T07:42:40.901Z,75.23
2023-02-14T07:43:13.288Z,74.77
2023-02-14T07:43:45.604Z,73.33
2023-02-14T07:44:17.941Z,77.30
2023-02-14T07:44:50.310Z,79.53
2023-02-14T07:45:23.704Z,76.20